Time;durP1;ratioP1;P1;durP2;ratioP2;P2;SDS_P1;SDS_P2;PMS_P1;PMS_P2;Temp;Humidity;BMP_temperature;BMP_pressure;BME280_temperature;BME280_humidity;BME280_pressure;Samples;Min_cycle;Max_cycle;Signal;HPM_P1;HPM_P2
2022/08/19 00:01:37;;;;;;;10.43;4.40;;;23.20;99.90;;;;;;6213515;23;20008;-74
2022/08/19 00:04:06;;;;;;;10.00;3.95;;;23.20;99.90;;;;;;6212685;23;20031;-77
2022/08/19 00:06:34;;;;;;;11.90;4.25;;;23.20;99.90;;;;;;6213297;23;20001;-77
2022/08/19 00:09:00;;;;;;;11.88;4.60;;;23.20;99.90;;;;;;6211446;23;20088;-78
2022/08/19 00:11:27;;;;;;;10.55;4.25;;;23.20;99.90;;;;;;6211746;23;20087;-78
2022/08/19 00:13:53;;;;;;;13.13;4.60;;;23.30;99.90;;;;;;6212832;23;20016;-78
2022/08/19 00:16:20;;;;;;;13.15;4.40;;;23.30;99.90;;;;;;6213141;23;20005;-78
2022/08/19 00:18:47;;;;;;;13.27;4.50;;;23.50;99.90;;;;;;6211467;23;20459;-78
2022/08/19 00:21:14;;;;;;;14.43;4.10;;;23.40;99.90;;;;;;6211927;23;20170;-77
2022/08/19 00:23:40;;;;;;;12.52;4.57;;;23.40;99.90;;;;;;6212279;23;20087;-77
2022/08/19 00:26:07;;;;;;;11.15;4.18;;;23.40;99.90;;;;;;6213342;23;20039;-77
2022/08/19 00:28:35;;;;;;;10.20;4.20;;;23.50;99.90;;;;;;6212632;23;20001;-77
2022/08/19 00:31:02;;;;;;;7.85;3.95;;;23.50;99.90;;;;;;6213299;23;20016;-78
2022/08/19 00:33:32;;;;;;;10.35;3.95;;;23.60;99.90;;;;;;6212756;23;20381;-78
2022/08/19 00:36:04;;;;;;;6.70;2.97;;;23.70;99.90;;;;;;6211694;23;20476;-77
2022/08/19 00:38:30;;;;;;;12.38;3.40;;;23.70;99.90;;;;;;6211139;23;20084;-77
2022/08/19 00:40:56;;;;;;;11.18;3.38;;;23.80;99.90;;;;;;6211406;23;20035;-77
2022/08/19 00:43:25;;;;;;;10.90;3.45;;;23.80;99.90;;;;;;6210765;23;20432;-77
2022/08/19 00:45:52;;;;;;;10.10;3.63;;;23.90;99.90;;;;;;6212826;23;20080;-77
2022/08/19 00:48:19;;;;;;;11.50;3.58;;;24.00;99.90;;;;;;6210961;23;20032;-75
2022/08/19 00:50:45;;;;;;;9.05;3.60;;;24.00;99.90;;;;;;6213227;23;19998;-76
2022/08/19 00:53:14;;;;;;;14.45;3.42;;;24.00;99.90;;;;;;6212626;23;20024;-75
2022/08/19 00:55:44;;;;;;;9.07;3.58;;;24.00;99.90;;;;;;6212872;23;20646;-76
2022/08/19 00:58:12;;;;;;;12.32;3.53;;;24.00;99.90;;;;;;6212457;23;20384;-76
2022/08/19 01:00:38;;;;;;;16.42;3.42;;;24.00;99.90;;;;;;6210843;23;20007;-78
2022/08/19 01:03:17;;;;;;;8.75;3.38;;;24.00;99.90;;;;;;6211256;23;20009;-78
2022/08/19 01:05:45;;;;;;;13.80;4.05;;;24.00;99.90;;;;;;6212489;23;20031;-78
2022/08/19 01:08:11;;;;;;;13.77;4.78;;;23.90;99.90;;;;;;6212636;23;20375;-78
2022/08/19 01:10:42;;;;;;;14.38;4.82;;;23.60;99.90;;;;;;6213171;23;20004;-78
2022/08/19 01:13:08;;;;;;;21.88;5.05;;;23.30;99.90;;;;;;6212333;23;20001;-77
2022/08/19 01:15:41;;;;;;;19.65;6.05;;;22.70;99.90;;;;;;6212710;23;19997;-77
2022/08/19 01:18:10;;;;;;;24.55;7.03;;;22.10;99.90;;;;;;6212088;23;20008;-77
2022/08/19 01:20:36;;;;;;;16.33;7.00;;;21.70;99.90;;;;;;6211101;23;20000;-77
2022/08/19 01:23:03;;;;;;;53.28;10.95;;;21.60;99.90;;;;;;6212563;23;20005;-77
2022/08/19 01:25:36;;;;;;;275.08;25.00;;;21.30;99.90;;;;;;6213055;23;20056;-78
2022/08/19 01:28:03;;;;;;;101.53;15.07;;;20.90;99.90;;;;;;6210733;23;20440;-79
2022/08/19 01:30:34;;;;;;;136.38;24.40;;;20.80;99.90;;;;;;6210997;23;20009;-80
2022/08/19 01:33:01;;;;;;;756.05;54.50;;;20.70;99.90;;;;;;6210988;23;20008;-85
2022/08/19 01:35:30;;;;;;;150.65;22.80;;;20.70;99.90;;;;;;6214099;23;20095;-82
2022/08/19 01:38:02;;;;;;;65.53;19.48;;;20.70;99.90;;;;;;6212900;23;20039;-84
2022/08/19 01:40:33;;;;;;;74.90;24.58;;;20.40;99.90;;;;;;6213746;23;20084;-86
2022/08/19 01:42:59;;;;;;;129.98;37.47;;;20.40;99.90;;;;;;6212722;23;20055;-85
2022/08/19 01:45:27;;;;;;;79.60;30.92;;;20.60;99.90;;;;;;6213110;23;20092;-83
2022/08/19 01:47:54;;;;;;;88.57;34.30;;;20.80;99.90;;;;;;6212845;23;20051;-82
2022/08/19 01:50:20;;;;;;;95.72;38.85;;;20.80;99.90;;;;;;6215115;23;20009;-82
2022/08/19 01:52:46;;;;;;;135.48;43.42;;;20.90;99.90;;;;;;6212933;23;20005;-82
2022/08/19 01:55:16;;;;;;;114.68;37.95;;;20.90;99.90;;;;;;6213324;23;20009;-83
2022/08/19 01:57:45;;;;;;;94.18;34.13;;;21.00;99.90;;;;;;6212460;23;20017;-82
2022/08/19 02:00:15;;;;;;;94.13;35.88;;;21.10;99.90;;;;;;6213003;23;20005;-83
2022/08/19 02:02:41;;;;;;;93.22;36.30;;;21.20;99.90;;;;;;6214404;23;20063;-83
2022/08/19 02:05:08;;;;;;;49.38;24.63;;;21.30;99.90;;;;;;6214568;23;20005;-82
2022/08/19 02:07:35;;;;;;;42.50;21.23;;;21.10;99.90;;;;;;6212710;23;20058;-82
2022/08/19 02:10:06;;;;;;;50.95;26.00;;;20.90;99.90;;;;;;6213010;23;20027;-81
2022/08/19 02:12:32;;;;;;;61.00;28.98;;;20.70;99.90;;;;;;6212634;23;20005;-80
2022/08/19 02:15:00;;;;;;;74.35;32.45;;;20.70;99.90;;;;;;6212628;23;20062;-82
2022/08/19 02:17:28;;;;;;;66.60;30.85;;;20.60;99.90;;;;;;6213786;23;20017;-81
2022/08/19 02:19:54;;;;;;;101.65;39.58;;;20.70;99.90;;;;;;6214752;23;19993;-81
2022/08/19 02:22:20;;;;;;;79.72;35.60;;;20.80;99.90;;;;;;6212636;23;20386;-79
2022/08/19 02:24:47;;;;;;;85.93;38.03;;;20.90;99.90;;;;;;6212836;23;20024;-78
2022/08/19 02:27:14;;;;;;;70.15;34.53;;;20.90;99.90;;;;;;6212370;23;20331;-79
2022/08/19 02:29:40;;;;;;;45.95;28.15;;;20.90;99.90;;;;;;6214318;23;20076;-79
2022/08/19 02:32:06;;;;;;;46.53;26.02;;;20.70;99.90;;;;;;6214014;23;20001;-79
2022/08/19 02:34:32;;;;;;;41.28;23.85;;;20.60;99.90;;;;;;6214286;23;20024;-79
2022/08/19 02:36:58;;;;;;;59.55;29.55;;;20.60;99.90;;;;;;6214058;23;20436;-80
2022/08/19 02:39:24;;;;;;;39.95;24.30;;;20.50;99.90;;;;;;6214006;23;19997;-79
2022/08/19 02:41:51;;;;;;;45.20;24.65;;;20.40;99.90;;;;;;6214071;23;20000;-80
2022/08/19 02:44:17;;;;;;;52.35;23.20;;;20.40;99.90;;;;;;6214125;23;20589;-80
2022/08/19 02:46:46;;;;;;;44.28;23.75;;;20.40;99.90;;;;;;6213356;23;20004;-80
2022/08/19 02:49:11;;;;;;;49.42;24.63;;;20.30;99.90;;;;;;6213880;23;20001;-80
2022/08/19 02:51:40;;;;;;;36.13;21.52;;;20.30;99.90;;;;;;6214322;23;20325;-80
2022/08/19 02:54:07;;;;;;;28.27;16.13;;;20.30;99.90;;;;;;6213789;23;20008;-80
2022/08/19 02:56:38;;;;;;;24.05;13.77;;;20.30;99.90;;;;;;6214104;23;20388;-80
2022/08/19 02:59:09;;;;;;;32.95;17.45;;;20.00;99.90;;;;;;6213769;23;20324;-79
2022/08/19 03:01:36;;;;;;;32.53;16.10;;;19.70;99.90;;;;;;6214055;23;20450;-79
2022/08/19 03:04:05;;;;;;;38.30;20.00;;;19.80;99.90;;;;;;6211566;23;20435;-80
2022/08/19 03:06:31;;;;;;;39.85;19.35;;;20.00;99.90;;;;;;6214170;23;19997;-80
2022/08/19 03:08:57;;;;;;;38.85;22.63;;;20.00;99.90;;;;;;6213280;23;20380;-81
2022/08/19 03:11:27;;;;;;;31.25;19.67;;;20.00;99.90;;;;;;6212602;23;20040;-80
2022/08/19 03:13:54;;;;;;;38.25;17.55;;;20.10;99.90;;;;;;6211764;23;20008;-81
2022/08/19 03:16:21;;;;;;;36.60;18.67;;;20.00;99.90;;;;;;6211961;23;20004;-79
2022/08/19 03:18:47;;;;;;;24.95;15.93;;;19.90;99.90;;;;;;6213451;23;20005;-80
2022/08/19 03:21:18;;;;;;;26.17;16.15;;;19.90;99.90;;;;;;6212206;23;20000;-81
2022/08/19 03:23:45;;;;;;;29.10;16.65;;;19.80;99.90;;;;;;6214086;23;20196;-82
2022/08/19 03:26:10;;;;;;;27.52;16.95;;;19.80;99.90;;;;;;6212294;23;20061;-81
2022/08/19 03:28:37;;;;;;;26.75;14.65;;;19.80;99.90;;;;;;6213599;23;20001;-81
2022/08/19 03:31:07;;;;;;;35.38;16.73;;;19.80;99.90;;;;;;6212244;23;20004;-82
2022/08/19 03:33:33;;;;;;;31.50;15.93;;;19.70;99.90;;;;;;6213091;23;20143;-81
2022/08/19 03:36:12;;;;;;;29.67;15.07;;;19.80;99.90;;;;;;6212289;23;20005;-81
2022/08/19 03:38:43;;;;;;;24.90;13.73;;;19.80;99.90;;;;;;6213236;23;20015;-81
2022/08/19 03:41:13;;;;;;;32.25;18.42;;;19.80;99.90;;;;;;6213762;23;20363;-82
2022/08/19 03:43:41;;;;;;;25.75;14.10;;;19.80;99.90;;;;;;6213177;23;20004;-80
2022/08/19 03:46:12;;;;;;;22.35;12.18;;;19.80;99.90;;;;;;6211675;23;20009;-79
2022/08/19 03:48:40;;;;;;;24.45;12.45;;;19.80;99.90;;;;;;6213238;23;20000;-79
2022/08/19 03:51:07;;;;;;;22.00;12.45;;;19.70;99.90;;;;;;6214093;23;20001;-81
2022/08/19 03:53:34;;;;;;;30.45;13.35;;;19.70;99.90;;;;;;6211693;23;20009;-80
2022/08/19 03:56:01;;;;;;;31.23;14.20;;;19.70;99.90;;;;;;6211851;23;20005;-80
2022/08/19 03:58:28;;;;;;;21.25;10.85;;;19.70;99.90;;;;;;6212822;23;20001;-80
2022/08/19 04:00:56;;;;;;;30.75;14.70;;;19.70;99.90;;;;;;6213559;23;20001;-80
2022/08/19 04:03:22;;;;;;;34.90;15.93;;;19.80;99.90;;;;;;6211667;23;20001;-81
2022/08/19 04:05:48;;;;;;;32.78;16.65;;;19.80;99.90;;;;;;6213475;23;20076;-81
2022/08/19 04:08:17;;;;;;;39.15;16.17;;;19.70;99.90;;;;;;6211458;23;20033;-80
2022/08/19 04:10:43;;;;;;;45.95;17.35;;;19.60;99.90;;;;;;6211997;23;20032;-80
2022/08/19 04:13:09;;;;;;;45.15;18.20;;;19.60;99.90;;;;;;6212596;23;20008;-79
2022/08/19 04:15:41;;;;;;;46.47;22.40;;;19.60;99.90;;;;;;6211598;23;20537;-80
2022/08/19 04:18:09;;;;;;;45.70;20.88;;;19.60;99.90;;;;;;6212283;23;20040;-80
2022/08/19 04:20:47;;;;;;;56.20;24.25;;;19.80;99.90;;;;;;6211849;23;20086;-79
2022/08/19 04:23:14;;;;;;;58.08;25.15;;;19.90;99.90;;;;;;6213109;23;20008;-80
2022/08/19 04:25:43;;;;;;;40.75;21.30;;;20.00;99.90;;;;;;6212904;23;20373;-80
2022/08/19 04:28:12;;;;;;;37.63;20.98;;;20.10;99.90;;;;;;6212741;23;20010;-79
2022/08/19 04:30:40;;;;;;;38.13;19.75;;;20.00;99.90;;;;;;6213429;23;20367;-80
2022/08/19 04:33:06;;;;;;;29.55;16.90;;;20.00;99.90;;;;;;6212993;23;20039;-81
2022/08/19 04:35:37;;;;;;;24.27;14.32;;;20.00;99.90;;;;;;6211612;23;20436;-83
2022/08/19 04:38:03;;;;;;;24.38;13.57;;;20.00;99.90;;;;;;6212703;23;20012;-82
2022/08/19 04:43:14;;;;;;;21.73;12.27;;;19.90;99.90;;;;;;6212774;23;20019;-82
2022/08/19 04:45:40;;;;;;;13.07;9.43;;;19.80;99.90;;;;;;6213160;23;20001;-78
2022/08/19 04:48:05;;;;;;;14.10;7.63;;;19.60;99.90;;;;;;6212607;23;20159;-80
2022/08/19 04:50:31;;;;;;;12.73;7.13;;;19.60;99.90;;;;;;6211515;23;20012;-80
2022/08/19 04:52:57;;;;;;;12.60;6.38;;;19.40;99.90;;;;;;6212153;23;20012;-78
2022/08/19 04:55:25;;;;;;;12.65;7.43;;;19.30;99.90;;;;;;6212976;23;20004;-78
2022/08/19 04:57:51;;;;;;;14.82;6.55;;;19.20;99.90;;;;;;6210677;23;20016;-79
2022/08/19 05:00:17;;;;;;;12.05;5.78;;;19.10;99.90;;;;;;6213255;23;20493;-78
2022/08/19 05:02:43;;;;;;;8.30;4.88;;;19.10;99.90;;;;;;6212577;23;20039;-79
2022/08/19 05:05:09;;;;;;;7.50;4.30;;;19.00;99.90;;;;;;6213013;23;20080;-79
2022/08/19 05:07:35;;;;;;;5.93;3.75;;;18.90;99.90;;;;;;6211328;23;20090;-78
2022/08/19 05:10:01;;;;;;;6.18;3.75;;;18.80;99.90;;;;;;6211202;23;20005;-78
2022/08/19 05:12:28;;;;;;;6.65;3.20;;;18.80;99.90;;;;;;6212506;23;19997;-79
2022/08/19 05:14:54;;;;;;;6.90;2.75;;;18.70;99.90;;;;;;6212937;23;20004;-77
2022/08/19 05:17:19;;;;;;;4.75;2.67;;;18.70;99.90;;;;;;6212268;23;20017;-77
2022/08/19 05:22:34;;;;;;;5.07;2.35;;;18.70;99.90;;;;;;6212529;23;20067;-78
2022/08/19 05:25:03;;;;;;;5.70;2.40;;;18.70;99.90;;;;;;6212797;23;20432;-79
2022/08/19 05:27:28;;;;;;;4.85;2.30;;;18.80;99.90;;;;;;6212507;23;20009;-77
2022/08/19 05:29:54;;;;;;;4.90;2.10;;;18.80;99.90;;;;;;6210927;23;20000;-78
2022/08/19 05:32:21;;;;;;;4.40;1.77;;;18.90;99.90;;;;;;6212239;23;20001;-80
2022/08/19 05:34:47;;;;;;;2.83;1.30;;;18.80;99.90;;;;;;6211101;23;20486;-78
2022/08/19 05:37:13;;;;;;;1.95;1.42;;;18.80;99.90;;;;;;6210806;23;20016;-78
2022/08/19 05:39:40;;;;;;;3.80;1.65;;;18.80;99.90;;;;;;6211215;23;20009;-78
2022/08/19 05:42:08;;;;;;;6.45;2.08;;;18.90;99.90;;;;;;6211059;23;20005;-77
2022/08/19 05:44:36;;;;;;;2.17;1.55;;;19.00;99.90;;;;;;6212756;23;19997;-78
2022/08/19 05:47:04;;;;;;;2.55;1.40;;;19.00;99.90;;;;;;6212366;23;20451;-78
2022/08/19 05:49:31;;;;;;;5.10;1.10;;;19.20;99.90;;;;;;6212535;23;20007;-78
2022/08/19 05:51:59;;;;;;;4.43;1.40;;;19.10;99.90;;;;;;6212644;23;20067;-78
2022/08/19 05:54:25;;;;;;;3.17;1.40;;;19.20;99.90;;;;;;6212862;23;20046;-77
2022/08/19 05:56:52;;;;;;;4.18;1.52;;;19.30;99.90;;;;;;6212229;23;20016;-78
2022/08/19 05:59:21;;;;;;;2.42;1.10;;;19.50;99.90;;;;;;6212503;23;20005;-77
2022/08/19 06:01:50;;;;;;;7.03;1.50;;;19.50;99.90;;;;;;6212578;23;20008;-77
2022/08/19 06:04:18;;;;;;;3.05;1.58;;;19.40;99.90;;;;;;6210983;23;19996;-77
2022/08/19 06:06:46;;;;;;;2.22;1.48;;;19.60;99.90;;;;;;6212755;23;20011;-78
2022/08/19 06:09:12;;;;;;;3.25;1.50;;;19.70;99.90;;;;;;6210498;23;20008;-77
2022/08/19 06:11:46;;;;;;;3.72;1.50;;;19.70;99.90;;;;;;6212611;23;20044;-77
2022/08/19 06:14:16;;;;;;;3.60;1.65;;;19.70;99.90;;;;;;6210347;23;20298;-77
2022/08/19 06:16:43;;;;;;;6.05;1.70;;;19.90;99.90;;;;;;6210513;23;20082;-79
2022/08/19 06:19:16;;;;;;;2.25;1.50;;;19.90;99.90;;;;;;6210490;23;20444;-79
2022/08/19 06:21:46;;;;;;;4.50;1.42;;;19.90;99.90;;;;;;6212525;23;20013;-80
2022/08/19 06:24:14;;;;;;;4.55;1.30;;;19.80;99.90;;;;;;6214064;23;19997;-82
2022/08/19 06:26:46;;;;;;;5.53;1.38;;;19.80;99.90;;;;;;6214617;23;20001;-78
2022/08/19 06:29:14;;;;;;;8.50;1.70;;;19.80;99.90;;;;;;6214378;23;20020;-82
2022/08/19 06:31:46;;;;;;;3.10;1.30;;;19.90;99.90;;;;;;6213230;23;20036;-82
2022/08/19 06:34:12;;;;;;;4.60;1.48;;;20.00;99.90;;;;;;6212594;23;20050;-81
2022/08/19 06:36:41;;;;;;;2.70;1.38;;;20.10;99.90;;;;;;6210534;23;20008;-79
2022/08/19 06:39:14;;;;;;;4.07;1.60;;;20.20;99.90;;;;;;6209687;23;20340;-79
2022/08/19 06:41:44;;;;;;;3.95;1.23;;;20.40;99.90;;;;;;6208457;23;20039;-79
2022/08/19 06:44:11;;;;;;;3.50;1.52;;;20.60;99.90;;;;;;6209756;23;20008;-80
2022/08/19 06:46:38;;;;;;;2.58;1.30;;;20.50;99.90;;;;;;6209529;23;20008;-82
2022/08/19 06:49:04;;;;;;;3.30;1.35;;;20.40;99.90;;;;;;6212165;23;20035;-79
2022/08/19 06:51:32;;;;;;;7.68;1.50;;;20.50;99.90;;;;;;6214371;23;20005;-80
2022/08/19 06:53:58;;;;;;;3.38;1.23;;;20.60;99.90;;;;;;6211882;23;20407;-81
2022/08/19 06:56:36;;;;;;;5.78;1.77;;;20.70;99.90;;;;;;6212814;23;20051;-80
2022/08/19 06:59:07;;;;;;;1.52;1.38;;;21.00;99.90;;;;;;6211862;23;20436;-80
2022/08/19 07:01:51;;;;;;;2.75;1.30;;;21.00;99.90;;;;;;6212518;23;20499;-80
2022/08/19 07:04:25;;;;;;;4.47;1.45;;;21.00;99.90;;;;;;6212382;23;20009;-79
2022/08/19 07:07:01;;;;;;;6.65;1.83;;;21.10;99.90;;;;;;6213942;23;20051;-81
2022/08/19 07:09:27;;;;;;;2.80;1.20;;;20.90;99.90;;;;;;6212605;23;20008;-82
2022/08/19 07:11:53;;;;;;;4.57;1.52;;;21.20;99.90;;;;;;6212349;23;20005;-81
2022/08/19 07:14:24;;;;;;;4.40;1.48;;;21.20;99.90;;;;;;6213565;23;20000;-81
2022/08/19 07:16:51;;;;;;;2.75;1.23;;;21.30;99.90;;;;;;6213616;23;20023;-81
2022/08/19 07:19:19;;;;;;;2.05;1.10;;;21.20;99.90;;;;;;6212480;23;20448;-81
2022/08/19 07:21:46;;;;;;;3.67;1.33;;;21.40;99.90;;;;;;6214136;23;20379;-81
2022/08/19 07:24:12;;;;;;;6.43;1.40;;;21.30;99.90;;;;;;6213390;23;20000;-81
2022/08/19 07:26:41;;;;;;;3.83;1.27;;;21.50;99.90;;;;;;6212314;23;20386;-81
2022/08/19 07:29:06;;;;;;;3.97;1.27;;;21.60;99.90;;;;;;6213502;23;20142;-81
2022/08/19 07:31:36;;;;;;;4.95;1.33;;;21.60;99.90;;;;;;6212262;23;20439;-81
2022/08/19 07:34:06;;;;;;;4.28;1.60;;;21.60;99.90;;;;;;6212898;23;20011;-81
2022/08/19 07:36:34;;;;;;;4.68;1.30;;;21.90;99.90;;;;;;6212365;23;20040;-81
2022/08/19 07:39:04;;;;;;;13.73;2.15;;;22.00;99.90;;;;;;6211459;23;20012;-80
2022/08/19 07:41:31;;;;;;;4.97;1.67;;;22.20;99.90;;;;;;6213971;23;20000;-80
2022/08/19 07:44:03;;;;;;;4.93;1.77;;;22.20;99.90;;;;;;6213345;23;20535;-81
2022/08/19 07:46:32;;;;;;;5.53;1.88;;;22.20;99.90;;;;;;6213892;23;19997;-83
2022/08/19 07:49:00;;;;;;;6.22;2.25;;;22.30;99.90;;;;;;6213488;23;20015;-82
2022/08/19 07:51:26;;;;;;;6.70;2.08;;;22.20;99.90;;;;;;6212160;23;20000;-81
2022/08/19 07:53:53;;;;;;;5.82;2.10;;;22.50;99.90;;;;;;6211456;23;20075;-81
2022/08/19 07:56:20;;;;;;;7.82;1.83;;;22.90;99.90;;;;;;6213747;23;20029;-81
2022/08/19 07:58:49;;;;;;;5.65;2.08;;;23.10;99.90;;;;;;6211803;23;20008;-82
2022/08/19 08:01:22;;;;;;;5.97;1.45;;;23.00;99.90;;;;;;6213472;23;20001;-81
2022/08/19 08:09:22;;;;;;;10.00;2.78;;;23.10;99.90;;;;;;6213312;23;20340;-80
2022/08/19 08:11:52;;;;;;;7.53;2.55;;;22.90;99.90;;;;;;6211542;23;20028;-80
2022/08/19 08:14:48;;;;;;;11.43;2.42;;;23.00;99.90;;;;;;6211607;23;20380;-82
2022/08/19 08:17:16;;;;;;;8.30;2.55;;;23.00;99.90;;;;;;6208901;23;20099;-80
2022/08/19 08:19:42;;;;;;;5.57;2.20;;;23.00;99.90;;;;;;6213640;23;20363;-81
2022/08/19 08:23:21;;;;;;;16.67;2.83;;;23.10;99.90;;;;;;6211434;23;20116;-81
2022/08/19 08:24:57;;;;;;;6.68;2.65;;;23.10;99.90;;;;;;6213077;23;20000;-82
2022/08/19 08:27:24;;;;;;;13.38;2.47;;;23.30;99.90;;;;;;6211263;23;20052;-79
2022/08/19 08:29:49;;;;;;;7.18;2.28;;;23.60;99.90;;;;;;6211834;23;20592;-80
2022/08/19 08:32:15;;;;;;;3.72;1.83;;;23.90;99.90;;;;;;6210904;23;20047;-80
2022/08/19 08:34:42;;;;;;;14.25;2.58;;;24.30;99.90;;;;;;6212992;23;20001;-80
2022/08/19 08:37:08;;;;;;;12.68;2.60;;;24.40;99.90;;;;;;6212827;23;20499;-81
2022/08/19 08:39:34;;;;;;;15.75;3.08;;;24.70;99.90;;;;;;6212044;23;20404;-81
2022/08/19 08:42:38;;;;;;;10.23;2.72;;;24.80;99.90;;;;;;6210981;23;20090;-81
2022/08/19 08:45:15;;;;;;;14.38;2.83;;;24.90;99.90;;;;;;6178948;23;20009;-81
2022/08/19 08:47:46;;;;;;;12.52;2.83;;;24.90;99.90;;;;;;6209095;23;20005;-81
2022/08/19 08:50:23;;;;;;;8.82;2.75;;;25.00;99.90;;;;;;6210827;23;20001;-81
2022/08/19 08:52:55;;;;;;;8.20;2.80;;;25.30;99.90;;;;;;6211707;23;20001;-80
2022/08/19 08:55:23;;;;;;;16.95;5.35;;;25.50;99.90;;;;;;6213044;23;20084;-80
2022/08/19 08:57:50;;;;;;;14.07;3.65;;;25.70;99.90;;;;;;6212223;23;20039;-81
2022/08/19 09:00:28;;;;;;;11.70;2.80;;;26.10;99.90;;;;;;6213040;23;20000;-82
2022/08/19 09:02:54;;;;;;;11.13;3.38;;;26.20;99.90;;;;;;6211134;23;20015;-81
2022/08/19 09:05:22;;;;;;;10.98;3.03;;;26.20;99.90;;;;;;6213222;23;20008;-82
2022/08/19 09:07:55;;;;;;;11.52;3.55;;;26.30;99.90;;;;;;6212640;23;20006;-81
2022/08/19 09:11:00;;;;;;;15.85;4.78;;;26.20;99.90;;;;;;6213099;23;20088;-82
2022/08/19 09:14:04;;;;;;;19.30;4.97;;;26.30;99.90;;;;;;6066721;23;20009;-81
2022/08/19 09:16:30;;;;;;;21.17;4.60;;;26.30;99.90;;;;;;6091282;23;20017;-82
2022/08/19 09:19:05;;;;;;;22.23;5.07;;;26.50;99.90;;;;;;6172130;23;20004;-80
2022/08/19 09:21:32;;;;;;;36.22;5.93;;;26.70;99.90;;;;;;6211485;23;20057;-82
2022/08/19 09:23:58;;;;;;;18.80;4.93;;;27.20;99.90;;;;;;6211038;23;20070;-83
2022/08/19 09:26:24;;;;;;;20.15;5.28;;;27.50;99.90;;;;;;6213016;23;20244;-81
2022/08/19 09:28:53;;;;;;;23.67;5.75;;;27.60;99.90;;;;;;6210834;23;20004;-83
2022/08/19 09:31:23;;;;;;;25.88;5.78;;;27.80;99.90;;;;;;6213300;23;20439;-81
2022/08/19 09:33:50;;;;;;;21.65;5.88;;;27.90;99.90;;;;;;6212294;23;20036;-80
2022/08/19 09:36:18;;;;;;;39.20;6.55;;;28.00;99.90;;;;;;6210880;23;20004;-80
2022/08/19 09:38:44;;;;;;;20.55;5.80;;;28.00;99.90;;;;;;6210608;23;20444;-80
2022/08/19 09:41:16;;;;;;;20.50;5.82;;;28.00;99.90;;;;;;6211435;23;20012;-85
2022/08/19 09:43:46;;;;;;;27.05;6.45;;;28.00;99.90;;;;;;6210698;23;20015;-81
2022/08/19 09:46:12;;;;;;;21.88;6.20;;;28.00;99.90;;;;;;6211435;23;20004;-83
2022/08/19 09:48:39;;;;;;;23.13;6.00;;;28.20;99.90;;;;;;6212291;23;20323;-82
2022/08/19 09:51:14;;;;;;;22.00;5.85;;;28.40;99.90;;;;;;6212983;23;20001;-82
2022/08/19 09:53:41;;;;;;;25.35;7.15;;;28.70;99.90;;;;;;6212389;23;20000;-82
2022/08/19 09:56:06;;;;;;;23.92;5.55;;;28.80;99.90;;;;;;6213668;23;20451;-81
2022/08/19 09:58:34;;;;;;;27.25;5.82;;;29.00;99.90;;;;;;6214300;23;20005;-79
2022/08/19 10:01:01;;;;;;;32.35;6.88;;;29.20;99.90;;;;;;6213240;23;20008;-83
2022/08/19 10:03:29;;;;;;;28.90;6.75;;;29.40;99.90;;;;;;6214369;23;20533;-82
2022/08/19 10:05:56;;;;;;;29.88;6.75;;;29.50;99.90;;;;;;6213047;23;20585;-80
2022/08/19 10:08:28;;;;;;;27.65;6.45;;;29.40;99.90;;;;;;6214265;23;20028;-80
2022/08/19 10:10:54;;;;;;;36.63;6.30;;;29.20;99.90;;;;;;6213201;23;20007;-83
2022/08/19 10:13:24;;;;;;;30.17;6.80;;;29.00;99.90;;;;;;6212563;23;19997;-82
2022/08/19 10:15:56;;;;;;;25.75;6.40;;;28.70;99.90;;;;;;6213016;23;20000;-81
2022/08/19 10:18:24;;;;;;;37.63;6.43;;;28.40;99.90;;;;;;6214103;23;20020;-81
2022/08/19 10:20:52;;;;;;;33.40;6.13;;;28.20;99.90;;;;;;6214865;23;20224;-82
2022/08/19 10:23:19;;;;;;;31.77;6.90;;;28.00;99.90;;;;;;6211977;23;20361;-81
2022/08/19 10:25:46;;;;;;;31.98;6.80;;;27.80;99.90;;;;;;6214698;23;20004;-81
2022/08/19 10:28:11;;;;;;;34.95;7.43;;;27.70;99.90;;;;;;6212395;23;20029;-81
2022/08/19 10:30:39;;;;;;;34.00;8.75;;;27.50;99.90;;;;;;6214413;23;20024;-83
2022/08/19 10:33:06;;;;;;;44.28;9.20;;;27.20;99.90;;;;;;6213774;23;20020;-83
2022/08/19 10:35:32;;;;;;;35.03;8.88;;;26.40;99.90;;;;;;6213158;23;20008;-84
2022/08/19 10:37:59;;;;;;;31.35;7.65;;;25.90;99.90;;;;;;6212363;23;20095;-82
2022/08/19 10:40:26;;;;;;;28.65;6.93;;;25.30;99.90;;;;;;6212797;23;20082;-80
2022/08/19 10:42:53;;;;;;;25.38;7.07;;;25.00;99.90;;;;;;6212094;23;20068;-80
2022/08/19 10:45:23;;;;;;;35.95;7.63;;;25.00;99.90;;;;;;6214540;23;19997;-83
2022/08/19 10:47:49;;;;;;;18.77;5.53;;;24.80;99.90;;;;;;6214192;23;20000;-84
2022/08/19 10:53:04;;;;;;;20.73;6.60;;;23.80;99.90;;;;;;6213724;23;20015;-80
2022/08/19 10:58:16;;;;;;;13.50;4.88;;;24.10;99.90;;;;;;6213364;23;20375;-81
2022/08/19 11:00:43;;;;;;;14.32;4.45;;;24.60;99.90;;;;;;6214556;23;20444;-82
2022/08/19 11:03:09;;;;;;;17.35;4.97;;;25.00;99.90;;;;;;6214011;23;20031;-81
2022/08/19 11:05:37;;;;;;;16.52;5.03;;;25.40;99.90;;;;;;6214237;23;20001;-81
2022/08/19 11:08:03;;;;;;;16.25;4.18;;;25.60;99.90;;;;;;6213139;23;20015;-81
2022/08/19 11:10:28;;;;;;;13.23;4.18;;;25.60;99.90;;;;;;6212687;23;20359;-81
2022/08/19 11:12:55;;;;;;;14.02;4.13;;;25.50;99.90;;;;;;6213196;23;20004;-82
2022/08/19 11:15:21;;;;;;;10.65;4.18;;;25.80;99.90;;;;;;6213888;23;20083;-81
2022/08/19 11:17:46;;;;;;;10.65;3.85;;;26.20;99.90;;;;;;6211920;23;20047;-81
2022/08/19 11:20:14;;;;;;;13.52;4.13;;;26.70;99.90;;;;;;6214298;23;20605;-81
2022/08/19 11:22:41;;;;;;;10.25;3.80;;;27.20;99.90;;;;;;6213684;23;20305;-81
2022/08/19 11:25:09;;;;;;;10.10;3.45;;;27.30;99.90;;;;;;6214422;23;20012;-80
2022/08/19 11:27:42;;;;;;;8.10;3.20;;;27.40;99.90;;;;;;6212263;23;20005;-81
2022/08/19 11:30:10;;;;;;;8.63;3.83;;;27.50;99.90;;;;;;6214107;23;20000;-81
2022/08/19 11:32:35;;;;;;;8.00;2.90;;;27.70;99.90;;;;;;6213368;23;20080;-81
2022/08/19 11:35:01;;;;;;;7.13;3.28;;;28.10;99.90;;;;;;6212053;23;20451;-80
2022/08/19 11:37:27;;;;;;;12.82;2.95;;;28.50;99.90;;;;;;6212041;23;20018;-82
2022/08/19 11:39:53;;;;;;;8.43;2.80;;;29.00;99.90;;;;;;6213309;23;20023;-82
2022/08/19 11:45:03;;;;;;;10.55;3.25;;;29.60;99.90;;;;;;6213797;23;20058;-82
2022/08/19 11:47:30;;;;;;;7.22;3.13;;;29.60;99.90;;;;;;6211282;23;20000;-82
2022/08/19 11:49:56;;;;;;;8.02;3.00;;;29.60;99.90;;;;;;6213883;23;20051;-82
2022/08/19 11:52:22;;;;;;;8.88;2.95;;;29.60;99.90;;;;;;6213467;23;20001;-83
2022/08/19 11:54:48;;;;;;;9.02;3.13;;;29.70;99.90;;;;;;6212287;23;20091;-82
2022/08/19 11:57:16;;;;;;;8.30;3.30;;;29.90;99.90;;;;;;6211628;23;20051;-82
2022/08/19 11:59:47;;;;;;;7.43;2.80;;;30.20;99.90;;;;;;6213434;23;19996;-82
2022/08/19 12:02:15;;;;;;;8.90;2.70;;;30.40;99.90;;;;;;6213315;23;20024;-82
2022/08/19 12:04:40;;;;;;;8.20;3.20;;;30.60;99.90;;;;;;6213668;23;20054;-82
2022/08/19 12:07:06;;;;;;;9.15;3.08;;;30.60;99.90;;;;;;6213432;23;20444;-80
2022/08/19 12:09:34;;;;;;;11.52;3.00;;;30.80;99.90;;;;;;6212076;23;20028;-83
2022/08/19 12:12:01;;;;;;;10.07;3.20;;;31.30;99.90;;;;;;6213476;23;20004;-83
2022/08/19 12:14:29;;;;;;;10.55;3.40;;;32.50;99.90;;;;;;6213364;23;20023;-84
2022/08/19 12:16:55;;;;;;;14.15;3.38;;;34.30;99.90;;;;;;6211352;23;20020;-84
2022/08/19 12:19:21;;;;;;;6.70;3.08;;;36.30;99.90;;;;;;6211730;23;20071;-85
2022/08/19 12:21:47;;;;;;;6.22;2.85;;;38.20;99.90;;;;;;6211363;23;20008;-85
2022/08/19 12:24:13;;;;;;;11.32;2.88;;;39.70;99.90;;;;;;6213199;23;20035;-85
2022/08/19 12:26:39;;;;;;;9.80;2.83;;;41.00;99.90;;;;;;6211576;23;20004;-85
2022/08/19 12:29:05;;;;;;;15.80;3.17;;;42.30;97.40;;;;;;6212917;23;20001;-85
2022/08/19 12:31:31;;;;;;;7.75;2.72;;;43.50;95.80;;;;;;6213733;23;20004;-84
2022/08/19 12:33:58;;;;;;;8.88;3.10;;;44.40;91.10;;;;;;6210924;23;20526;-86
2022/08/19 12:36:24;;;;;;;8.65;3.10;;;43.70;91.00;;;;;;6213430;23;20000;-86
2022/08/19 12:38:51;;;;;;;7.85;2.90;;;43.90;89.90;;;;;;6213120;23;20079;-85
2022/08/19 12:41:18;;;;;;;7.97;2.70;;;43.70;87.50;;;;;;6213626;23;20000;-85
2022/08/19 12:43:44;;;;;;;8.57;2.63;;;43.30;90.00;;;;;;6211130;23;20004;-86
2022/08/19 12:46:10;;;;;;;7.93;2.63;;;43.30;90.10;;;;;;6212159;23;20008;-86
2022/08/19 12:48:37;;;;;;;5.35;2.22;;;42.90;84.50;;;;;;6212935;23;20047;-84
2022/08/19 12:51:13;;;;;;;8.98;2.85;;;42.30;83.50;;;;;;6211798;23;20008;-85
2022/08/19 12:53:38;;;;;;;11.60;2.78;;;42.20;86.90;;;;;;6212637;23;20084;-85
2022/08/19 12:56:05;;;;;;;9.27;2.83;;;41.60;86.90;;;;;;6211914;23;20374;-85
2022/08/19 12:58:32;;;;;;;13.68;3.20;;;41.60;85.00;;;;;;6211229;23;20336;-87
2022/08/19 13:00:57;;;;;;;7.28;3.00;;;41.70;85.20;;;;;;6213379;23;19997;-87
2022/08/19 13:03:28;;;;;;;10.13;2.85;;;41.60;84.40;;;;;;6208194;23;20436;-84